sensor_id;sensor_type;location;lat;lon;timestamp;P1;durP1;ratioP1;P2;durP2;ratioP2
57327;SDS011;43162;51.040;18.244;2024-02-26T00:01:49;22.80;;;7.90;;
57327;SDS011;43162;51.040;18.244;2024-02-26T00:04:14;18.40;;;7.40;;
57327;SDS011;43162;51.040;18.244;2024-02-26T00:06:40;16.00;;;7.60;;
57327;SDS011;43162;51.040;18.244;2024-02-26T00:09:06;16.70;;;9.00;;
57327;SDS011;43162;51.040;18.244;2024-02-26T00:11:34;20.80;;;10.20;;
57327;SDS011;43162;51.040;18.244;2024-02-26T00:14:01;18.50;;;8.40;;
57327;SDS011;43162;51.040;18.244;2024-02-26T00:16:26;18.30;;;9.00;;
57327;SDS011;43162;51.040;18.244;2024-02-26T00:18:52;23.10;;;8.80;;
57327;SDS011;43162;51.040;18.244;2024-02-26T00:21:17;20.70;;;7.80;;
57327;SDS011;43162;51.040;18.244;2024-02-26T00:23:43;19.60;;;7.70;;
57327;SDS011;43162;51.040;18.244;2024-02-26T00:26:08;17.60;;;8.40;;
57327;SDS011;43162;51.040;18.244;2024-02-26T00:28:36;22.10;;;10.20;;
57327;SDS011;43162;51.040;18.244;2024-02-26T00:31:02;20.60;;;10.20;;
57327;SDS011;43162;51.040;18.244;2024-02-26T00:33:28;24.10;;;11.40;;
57327;SDS011;43162;51.040;18.244;2024-02-26T00:35:53;17.90;;;9.30;;
57327;SDS011;43162;51.040;18.244;2024-02-26T00:38:19;16.30;;;7.90;;
57327;SDS011;43162;51.040;18.244;2024-02-26T00:40:45;21.80;;;8.70;;
57327;SDS011;43162;51.040;18.244;2024-02-26T00:43:11;17.70;;;8.30;;
57327;SDS011;43162;51.040;18.244;2024-02-26T00:45:36;14.90;;;7.60;;
57327;SDS011;43162;51.040;18.244;2024-02-26T00:48:02;19.70;;;8.80;;
57327;SDS011;43162;51.040;18.244;2024-02-26T00:50:33;17.40;;;9.00;;
57327;SDS011;43162;51.040;18.244;2024-02-26T00:52:59;20.40;;;9.90;;
57327;SDS011;43162;51.040;18.244;2024-02-26T00:55:25;22.50;;;11.20;;
57327;SDS011;43162;51.040;18.244;2024-02-26T00:57:51;20.60;;;10.30;;
57327;SDS011;43162;51.040;18.244;2024-02-26T01:00:17;22.10;;;9.40;;
57327;SDS011;43162;51.040;18.244;2024-02-26T01:02:43;26.40;;;10.10;;
57327;SDS011;43162;51.040;18.244;2024-02-26T01:05:08;20.40;;;9.40;;
57327;SDS011;43162;51.040;18.244;2024-02-26T01:07:37;19.50;;;8.70;;
57327;SDS011;43162;51.040;18.244;2024-02-26T01:10:03;16.40;;;9.00;;
57327;SDS011;43162;51.040;18.244;2024-02-26T01:12:30;21.10;;;9.90;;
57327;SDS011;43162;51.040;18.244;2024-02-26T01:14:57;23.10;;;11.40;;
57327;SDS011;43162;51.040;18.244;2024-02-26T01:17:23;21.30;;;10.50;;
57327;SDS011;43162;51.040;18.244;2024-02-26T01:19:49;14.30;;;7.90;;
57327;SDS011;43162;51.040;18.244;2024-02-26T01:22:14;17.50;;;8.20;;
57327;SDS011;43162;51.040;18.244;2024-02-26T01:24:40;19.30;;;8.20;;
57327;SDS011;43162;51.040;18.244;2024-02-26T01:27:05;16.50;;;7.70;;
57327;SDS011;43162;51.040;18.244;2024-02-26T01:29:33;18.30;;;8.20;;
57327;SDS011;43162;51.040;18.244;2024-02-26T01:31:58;16.80;;;8.70;;
57327;SDS011;43162;51.040;18.244;2024-02-26T01:34:24;20.60;;;10.80;;
57327;SDS011;43162;51.040;18.244;2024-02-26T01:36:49;18.90;;;10.10;;
57327;SDS011;43162;51.040;18.244;2024-02-26T01:39:15;20.50;;;11.40;;
57327;SDS011;43162;51.040;18.244;2024-02-26T01:41:40;26.20;;;11.30;;
57327;SDS011;43162;51.040;18.244;2024-02-26T01:44:06;18.60;;;9.80;;
57327;SDS011;43162;51.040;18.244;2024-02-26T01:46:32;19.00;;;10.00;;
57327;SDS011;43162;51.040;18.244;2024-02-26T01:48:58;29.10;;;10.10;;
57327;SDS011;43162;51.040;18.244;2024-02-26T01:51:24;18.20;;;9.30;;
57327;SDS011;43162;51.040;18.244;2024-02-26T01:53:50;20.50;;;10.00;;
57327;SDS011;43162;51.040;18.244;2024-02-26T01:56:16;19.60;;;10.10;;
57327;SDS011;43162;51.040;18.244;2024-02-26T01:58:42;20.30;;;10.60;;
57327;SDS011;43162;51.040;18.244;2024-02-26T02:01:08;20.00;;;11.40;;
57327;SDS011;43162;51.040;18.244;2024-02-26T02:03:35;23.00;;;10.70;;
57327;SDS011;43162;51.040;18.244;2024-02-26T02:06:01;21.10;;;10.00;;
57327;SDS011;43162;51.040;18.244;2024-02-26T02:08:27;21.00;;;10.10;;
57327;SDS011;43162;51.040;18.244;2024-02-26T02:10:53;18.50;;;10.30;;
57327;SDS011;43162;51.040;18.244;2024-02-26T02:13:18;17.10;;;9.50;;
57327;SDS011;43162;51.040;18.244;2024-02-26T02:15:44;16.90;;;9.90;;
57327;SDS011;43162;51.040;18.244;2024-02-26T02:18:09;20.10;;;10.30;;
57327;SDS011;43162;51.040;18.244;2024-02-26T02:20:35;24.30;;;10.80;;
57327;SDS011;43162;51.040;18.244;2024-02-26T02:23:01;17.10;;;11.00;;
57327;SDS011;43162;51.040;18.244;2024-02-26T02:25:27;21.40;;;11.70;;
57327;SDS011;43162;51.040;18.244;2024-02-26T02:27:53;21.50;;;11.80;;
57327;SDS011;43162;51.040;18.244;2024-02-26T02:30:20;18.80;;;11.20;;
57327;SDS011;43162;51.040;18.244;2024-02-26T02:32:46;23.30;;;11.10;;
57327;SDS011;43162;51.040;18.244;2024-02-26T02:35:12;22.50;;;11.60;;
57327;SDS011;43162;51.040;18.244;2024-02-26T02:37:38;19.30;;;11.20;;
57327;SDS011;43162;51.040;18.244;2024-02-26T02:40:03;20.90;;;13.00;;
57327;SDS011;43162;51.040;18.244;2024-02-26T02:42:30;24.70;;;12.40;;
57327;SDS011;43162;51.040;18.244;2024-02-26T02:44:56;19.90;;;12.00;;
57327;SDS011;43162;51.040;18.244;2024-02-26T02:47:22;22.50;;;11.30;;
57327;SDS011;43162;51.040;18.244;2024-02-26T02:49:48;21.20;;;11.30;;
57327;SDS011;43162;51.040;18.244;2024-02-26T02:52:13;18.60;;;10.90;;
57327;SDS011;43162;51.040;18.244;2024-02-26T02:54:39;26.90;;;12.50;;
57327;SDS011;43162;51.040;18.244;2024-02-26T02:57:07;23.10;;;11.70;;
57327;SDS011;43162;51.040;18.244;2024-02-26T02:59:35;23.50;;;11.30;;
57327;SDS011;43162;51.040;18.244;2024-02-26T03:02:02;23.30;;;13.30;;
57327;SDS011;43162;51.040;18.244;2024-02-26T03:04:27;21.10;;;12.20;;
57327;SDS011;43162;51.040;18.244;2024-02-26T03:06:54;22.90;;;13.00;;
57327;SDS011;43162;51.040;18.244;2024-02-26T03:09:20;27.00;;;12.50;;
57327;SDS011;43162;51.040;18.244;2024-02-26T03:11:45;21.60;;;12.20;;
57327;SDS011;43162;51.040;18.244;2024-02-26T03:14:11;24.20;;;12.50;;
57327;SDS011;43162;51.040;18.244;2024-02-26T03:16:36;24.20;;;12.70;;
57327;SDS011;43162;51.040;18.244;2024-02-26T03:19:02;27.00;;;13.60;;
57327;SDS011;43162;51.040;18.244;2024-02-26T03:21:28;26.50;;;15.00;;
57327;SDS011;43162;51.040;18.244;2024-02-26T03:23:54;28.90;;;17.00;;
57327;SDS011;43162;51.040;18.244;2024-02-26T03:26:20;31.40;;;17.10;;
57327;SDS011;43162;51.040;18.244;2024-02-26T03:28:46;25.70;;;15.60;;
57327;SDS011;43162;51.040;18.244;2024-02-26T03:31:12;24.60;;;14.10;;
57327;SDS011;43162;51.040;18.244;2024-02-26T03:33:38;25.10;;;13.80;;
57327;SDS011;43162;51.040;18.244;2024-02-26T03:36:04;20.80;;;12.90;;
57327;SDS011;43162;51.040;18.244;2024-02-26T03:38:30;27.80;;;14.10;;
57327;SDS011;43162;51.040;18.244;2024-02-26T03:40:56;25.80;;;13.10;;
57327;SDS011;43162;51.040;18.244;2024-02-26T03:43:21;27.80;;;13.70;;
57327;SDS011;43162;51.040;18.244;2024-02-26T03:45:47;26.70;;;13.90;;
57327;SDS011;43162;51.040;18.244;2024-02-26T03:48:12;28.80;;;14.80;;
57327;SDS011;43162;51.040;18.244;2024-02-26T03:50:38;25.60;;;14.20;;
57327;SDS011;43162;51.040;18.244;2024-02-26T03:53:03;26.10;;;14.50;;
57327;SDS011;43162;51.040;18.244;2024-02-26T03:55:29;22.00;;;13.00;;
57327;SDS011;43162;51.040;18.244;2024-02-26T03:57:54;31.60;;;15.40;;
57327;SDS011;43162;51.040;18.244;2024-02-26T04:00:20;29.40;;;14.10;;
57327;SDS011;43162;51.040;18.244;2024-02-26T04:02:46;33.70;;;14.50;;
57327;SDS011;43162;51.040;18.244;2024-02-26T04:05:12;28.20;;;16.50;;
57327;SDS011;43162;51.040;18.244;2024-02-26T04:07:39;27.50;;;15.40;;
57327;SDS011;43162;51.040;18.244;2024-02-26T04:10:11;27.70;;;15.30;;
57327;SDS011;43162;51.040;18.244;2024-02-26T04:12:40;29.10;;;15.90;;
57327;SDS011;43162;51.040;18.244;2024-02-26T04:15:09;26.80;;;15.10;;
57327;SDS011;43162;51.040;18.244;2024-02-26T04:17:36;24.10;;;13.20;;
57327;SDS011;43162;51.040;18.244;2024-02-26T04:20:02;24.00;;;14.40;;
57327;SDS011;43162;51.040;18.244;2024-02-26T04:22:30;23.80;;;13.20;;
57327;SDS011;43162;51.040;18.244;2024-02-26T04:24:56;26.70;;;14.60;;
57327;SDS011;43162;51.040;18.244;2024-02-26T04:27:22;31.90;;;15.50;;
57327;SDS011;43162;51.040;18.244;2024-02-26T04:29:47;24.70;;;13.00;;
57327;SDS011;43162;51.040;18.244;2024-02-26T04:32:13;33.20;;;15.60;;
57327;SDS011;43162;51.040;18.244;2024-02-26T04:34:38;25.70;;;15.00;;
57327;SDS011;43162;51.040;18.244;2024-02-26T04:37:03;24.50;;;14.00;;
57327;SDS011;43162;51.040;18.244;2024-02-26T04:39:29;22.40;;;13.80;;
57327;SDS011;43162;51.040;18.244;2024-02-26T04:41:54;24.60;;;13.40;;
57327;SDS011;43162;51.040;18.244;2024-02-26T04:44:20;26.80;;;14.10;;
57327;SDS011;43162;51.040;18.244;2024-02-26T04:46:45;28.00;;;16.80;;
57327;SDS011;43162;51.040;18.244;2024-02-26T04:49:11;26.20;;;16.30;;
57327;SDS011;43162;51.040;18.244;2024-02-26T04:51:36;26.30;;;15.10;;
57327;SDS011;43162;51.040;18.244;2024-02-26T04:54:02;30.10;;;15.90;;
57327;SDS011;43162;51.040;18.244;2024-02-26T04:56:28;28.00;;;15.00;;
57327;SDS011;43162;51.040;18.244;2024-02-26T04:58:54;22.80;;;14.20;;
57327;SDS011;43162;51.040;18.244;2024-02-26T05:01:19;28.70;;;13.70;;
57327;SDS011;43162;51.040;18.244;2024-02-26T05:03:44;23.50;;;14.50;;
57327;SDS011;43162;51.040;18.244;2024-02-26T05:06:10;27.30;;;13.80;;
57327;SDS011;43162;51.040;18.244;2024-02-26T05:08:36;25.30;;;13.50;;
57327;SDS011;43162;51.040;18.244;2024-02-26T05:11:03;22.70;;;14.10;;
57327;SDS011;43162;51.040;18.244;2024-02-26T05:13:29;23.50;;;13.40;;
57327;SDS011;43162;51.040;18.244;2024-02-26T05:15:55;23.70;;;14.30;;
57327;SDS011;43162;51.040;18.244;2024-02-26T05:18:21;22.00;;;13.00;;
57327;SDS011;43162;51.040;18.244;2024-02-26T05:20:47;18.90;;;11.30;;
57327;SDS011;43162;51.040;18.244;2024-02-26T05:23:12;19.50;;;11.60;;
57327;SDS011;43162;51.040;18.244;2024-02-26T05:25:38;18.20;;;11.60;;
57327;SDS011;43162;51.040;18.244;2024-02-26T05:28:04;24.90;;;11.00;;
57327;SDS011;43162;51.040;18.244;2024-02-26T05:30:29;18.50;;;11.00;;
57327;SDS011;43162;51.040;18.244;2024-02-26T05:32:55;19.80;;;10.80;;
57327;SDS011;43162;51.040;18.244;2024-02-26T05:35:20;18.50;;;11.20;;
57327;SDS011;43162;51.040;18.244;2024-02-26T05:37:45;20.80;;;13.90;;
57327;SDS011;43162;51.040;18.244;2024-02-26T05:40:11;21.30;;;12.20;;
57327;SDS011;43162;51.040;18.244;2024-02-26T05:42:37;19.40;;;11.30;;
57327;SDS011;43162;51.040;18.244;2024-02-26T05:45:03;18.60;;;9.80;;
57327;SDS011;43162;51.040;18.244;2024-02-26T05:47:34;19.10;;;10.30;;
57327;SDS011;43162;51.040;18.244;2024-02-26T05:49:59;19.70;;;10.90;;
57327;SDS011;43162;51.040;18.244;2024-02-26T05:52:26;20.40;;;10.30;;
57327;SDS011;43162;51.040;18.244;2024-02-26T05:54:53;25.20;;;12.40;;
57327;SDS011;43162;51.040;18.244;2024-02-26T05:57:19;22.00;;;13.10;;
57327;SDS011;43162;51.040;18.244;2024-02-26T05:59:44;22.30;;;13.20;;
57327;SDS011;43162;51.040;18.244;2024-02-26T06:02:10;20.10;;;12.50;;
57327;SDS011;43162;51.040;18.244;2024-02-26T06:04:36;23.40;;;12.90;;
57327;SDS011;43162;51.040;18.244;2024-02-26T06:07:02;23.70;;;12.70;;
57327;SDS011;43162;51.040;18.244;2024-02-26T06:09:28;25.40;;;13.50;;
57327;SDS011;43162;51.040;18.244;2024-02-26T06:11:53;28.10;;;14.70;;
57327;SDS011;43162;51.040;18.244;2024-02-26T06:14:19;30.40;;;21.60;;
57327;SDS011;43162;51.040;18.244;2024-02-26T06:16:45;28.30;;;17.10;;
57327;SDS011;43162;51.040;18.244;2024-02-26T06:19:12;25.60;;;15.90;;
57327;SDS011;43162;51.040;18.244;2024-02-26T06:21:37;21.90;;;13.40;;
57327;SDS011;43162;51.040;18.244;2024-02-26T06:24:03;25.20;;;13.30;;
57327;SDS011;43162;51.040;18.244;2024-02-26T06:26:29;22.40;;;13.00;;
57327;SDS011;43162;51.040;18.244;2024-02-26T06:28:55;17.90;;;11.60;;
57327;SDS011;43162;51.040;18.244;2024-02-26T06:31:23;24.60;;;13.20;;
57327;SDS011;43162;51.040;18.244;2024-02-26T06:33:49;22.90;;;13.20;;
57327;SDS011;43162;51.040;18.244;2024-02-26T06:36:17;20.50;;;12.30;;
57327;SDS011;43162;51.040;18.244;2024-02-26T06:38:43;33.30;;;12.30;;
57327;SDS011;43162;51.040;18.244;2024-02-26T06:41:09;24.50;;;13.20;;
57327;SDS011;43162;51.040;18.244;2024-02-26T06:43:34;18.70;;;11.20;;
57327;SDS011;43162;51.040;18.244;2024-02-26T06:46:00;15.10;;;10.00;;
57327;SDS011;43162;51.040;18.244;2024-02-26T06:48:26;19.20;;;9.90;;
57327;SDS011;43162;51.040;18.244;2024-02-26T06:50:51;12.90;;;8.90;;
57327;SDS011;43162;51.040;18.244;2024-02-26T06:53:17;15.90;;;9.90;;
57327;SDS011;43162;51.040;18.244;2024-02-26T06:55:42;17.00;;;9.30;;
57327;SDS011;43162;51.040;18.244;2024-02-26T06:58:08;17.40;;;10.00;;
57327;SDS011;43162;51.040;18.244;2024-02-26T07:00:34;17.00;;;8.80;;
57327;SDS011;43162;51.040;18.244;2024-02-26T07:03:00;15.30;;;9.20;;
57327;SDS011;43162;51.040;18.244;2024-02-26T07:05:27;18.80;;;8.70;;
57327;SDS011;43162;51.040;18.244;2024-02-26T07:07:52;14.30;;;7.70;;
57327;SDS011;43162;51.040;18.244;2024-02-26T07:10:18;16.20;;;8.30;;
57327;SDS011;43162;51.040;18.244;2024-02-26T07:12:44;12.20;;;7.70;;
57327;SDS011;43162;51.040;18.244;2024-02-26T07:15:10;16.60;;;9.70;;
57327;SDS011;43162;51.040;18.244;2024-02-26T07:17:36;14.40;;;10.00;;
57327;SDS011;43162;51.040;18.244;2024-02-26T07:20:01;12.10;;;7.70;;
57327;SDS011;43162;51.040;18.244;2024-02-26T07:22:30;11.70;;;6.70;;
57327;SDS011;43162;51.040;18.244;2024-02-26T07:24:56;12.70;;;7.50;;
57327;SDS011;43162;51.040;18.244;2024-02-26T07:27:22;9.60;;;6.00;;
57327;SDS011;43162;51.040;18.244;2024-02-26T07:29:47;12.20;;;6.20;;
57327;SDS011;43162;51.040;18.244;2024-02-26T07:32:12;8.70;;;6.00;;
57327;SDS011;43162;51.040;18.244;2024-02-26T07:34:38;11.80;;;6.00;;
57327;SDS011;43162;51.040;18.244;2024-02-26T07:37:07;12.40;;;6.60;;
57327;SDS011;43162;51.040;18.244;2024-02-26T07:39:33;14.50;;;7.10;;
57327;SDS011;43162;51.040;18.244;2024-02-26T07:41:59;10.10;;;6.20;;
57327;SDS011;43162;51.040;18.244;2024-02-26T07:44:24;12.70;;;7.60;;
57327;SDS011;43162;51.040;18.244;2024-02-26T07:46:50;12.40;;;7.60;;
57327;SDS011;43162;51.040;18.244;2024-02-26T07:49:16;13.20;;;7.10;;
57327;SDS011;43162;51.040;18.244;2024-02-26T07:51:41;11.00;;;4.90;;
57327;SDS011;43162;51.040;18.244;2024-02-26T07:54:07;8.70;;;5.90;;
57327;SDS011;43162;51.040;18.244;2024-02-26T07:56:32;10.00;;;6.10;;
57327;SDS011;43162;51.040;18.244;2024-02-26T07:58:58;11.20;;;6.00;;
57327;SDS011;43162;51.040;18.244;2024-02-26T08:01:24;10.10;;;6.30;;
57327;SDS011;43162;51.040;18.244;2024-02-26T08:03:52;8.40;;;6.60;;
57327;SDS011;43162;51.040;18.244;2024-02-26T08:06:18;11.80;;;7.30;;
57327;SDS011;43162;51.040;18.244;2024-02-26T08:08:44;8.70;;;5.70;;
57327;SDS011;43162;51.040;18.244;2024-02-26T08:11:09;9.80;;;5.70;;
57327;SDS011;43162;51.040;18.244;2024-02-26T08:13:35;12.00;;;6.80;;
57327;SDS011;43162;51.040;18.244;2024-02-26T08:16:01;7.40;;;5.10;;
57327;SDS011;43162;51.040;18.244;2024-02-26T08:18:27;7.80;;;4.50;;
57327;SDS011;43162;51.040;18.244;2024-02-26T08:20:52;15.00;;;5.70;;
57327;SDS011;43162;51.040;18.244;2024-02-26T08:23:18;7.40;;;4.60;;
57327;SDS011;43162;51.040;18.244;2024-02-26T08:25:43;7.70;;;4.60;;
57327;SDS011;43162;51.040;18.244;2024-02-26T08:28:09;8.70;;;4.50;;
57327;SDS011;43162;51.040;18.244;2024-02-26T08:30:38;8.10;;;4.50;;
57327;SDS011;43162;51.040;18.244;2024-02-26T08:33:04;8.20;;;4.20;;
57327;SDS011;43162;51.040;18.244;2024-02-26T08:35:29;9.30;;;4.40;;
57327;SDS011;43162;51.040;18.244;2024-02-26T08:37:55;7.60;;;4.10;;
57327;SDS011;43162;51.040;18.244;2024-02-26T08:40:21;6.70;;;4.40;;
57327;SDS011;43162;51.040;18.244;2024-02-26T08:42:46;7.50;;;4.30;;
57327;SDS011;43162;51.040;18.244;2024-02-26T08:45:12;9.30;;;4.70;;
57327;SDS011;43162;51.040;18.244;2024-02-26T08:47:38;9.70;;;4.60;;
57327;SDS011;43162;51.040;18.244;2024-02-26T08:50:03;10.00;;;4.70;;
57327;SDS011;43162;51.040;18.244;2024-02-26T08:52:30;12.30;;;4.10;;
57327;SDS011;43162;51.040;18.244;2024-02-26T08:54:56;6.90;;;4.50;;
57327;SDS011;43162;51.040;18.244;2024-02-26T08:57:22;5.30;;;3.60;;
57327;SDS011;43162;51.040;18.244;2024-02-26T08:59:48;7.90;;;3.70;;
57327;SDS011;43162;51.040;18.244;2024-02-26T09:02:13;6.90;;;3.70;;
57327;SDS011;43162;51.040;18.244;2024-02-26T09:04:39;5.30;;;3.60;;
57327;SDS011;43162;51.040;18.244;2024-02-26T09:07:05;6.90;;;3.90;;
57327;SDS011;43162;51.040;18.244;2024-02-26T09:09:31;7.20;;;3.50;;
57327;SDS011;43162;51.040;18.244;2024-02-26T09:11:57;5.80;;;2.90;;
57327;SDS011;43162;51.040;18.244;2024-02-26T09:14:22;7.00;;;3.70;;
57327;SDS011;43162;51.040;18.244;2024-02-26T09:16:48;7.60;;;3.40;;
57327;SDS011;43162;51.040;18.244;2024-02-26T09:19:16;9.50;;;3.90;;
57327;SDS011;43162;51.040;18.244;2024-02-26T09:21:42;3.80;;;2.90;;
57327;SDS011;43162;51.040;18.244;2024-02-26T09:24:11;5.50;;;3.80;;
57327;SDS011;43162;51.040;18.244;2024-02-26T09:26:38;6.60;;;4.00;;
57327;SDS011;43162;51.040;18.244;2024-02-26T09:29:03;5.80;;;3.30;;
57327;SDS011;43162;51.040;18.244;2024-02-26T09:31:33;4.70;;;3.10;;
57327;SDS011;43162;51.040;18.244;2024-02-26T09:33:59;4.40;;;3.70;;
57327;SDS011;43162;51.040;18.244;2024-02-26T09:36:25;7.10;;;3.20;;
57327;SDS011;43162;51.040;18.244;2024-02-26T09:38:50;5.20;;;3.30;;
57327;SDS011;43162;51.040;18.244;2024-02-26T09:41:15;4.20;;;2.70;;
57327;SDS011;43162;51.040;18.244;2024-02-26T09:43:42;5.40;;;2.80;;
57327;SDS011;43162;51.040;18.244;2024-02-26T09:46:10;6.10;;;3.20;;
57327;SDS011;43162;51.040;18.244;2024-02-26T09:48:35;4.90;;;2.50;;
57327;SDS011;43162;51.040;18.244;2024-02-26T09:51:02;4.90;;;3.00;;
57327;SDS011;43162;51.040;18.244;2024-02-26T09:53:29;6.20;;;3.10;;
57327;SDS011;43162;51.040;18.244;2024-02-26T09:55:57;3.70;;;2.60;;
57327;SDS011;43162;51.040;18.244;2024-02-26T09:58:23;4.20;;;2.50;;
57327;SDS011;43162;51.040;18.244;2024-02-26T10:00:51;4.20;;;2.30;;
57327;SDS011;43162;51.040;18.244;2024-02-26T10:03:19;5.30;;;2.80;;
57327;SDS011;43162;51.040;18.244;2024-02-26T10:05:47;4.00;;;3.00;;
57327;SDS011;43162;51.040;18.244;2024-02-26T10:08:14;4.60;;;3.00;;
57327;SDS011;43162;51.040;18.244;2024-02-26T10:10:40;7.10;;;3.30;;
57327;SDS011;43162;51.040;18.244;2024-02-26T10:13:06;5.50;;;3.20;;
57327;SDS011;43162;51.040;18.244;2024-02-26T10:15:38;5.80;;;2.80;;
57327;SDS011;43162;51.040;18.244;2024-02-26T10:18:04;3.40;;;2.30;;
57327;SDS011;43162;51.040;18.244;2024-02-26T10:20:31;4.70;;;2.60;;
57327;SDS011;43162;51.040;18.244;2024-02-26T10:22:57;5.10;;;2.90;;
57327;SDS011;43162;51.040;18.244;2024-02-26T10:25:23;4.80;;;2.80;;
57327;SDS011;43162;51.040;18.244;2024-02-26T10:27:49;6.30;;;2.50;;
57327;SDS011;43162;51.040;18.244;2024-02-26T10:30:18;4.20;;;2.50;;
57327;SDS011;43162;51.040;18.244;2024-02-26T10:32:46;11.00;;;2.80;;
57327;SDS011;43162;51.040;18.244;2024-02-26T10:35:13;8.00;;;2.70;;
57327;SDS011;43162;51.040;18.244;2024-02-26T10:37:40;7.00;;;2.40;;
57327;SDS011;43162;51.040;18.244;2024-02-26T10:40:09;3.80;;;2.40;;
57327;SDS011;43162;51.040;18.244;2024-02-26T10:42:38;5.00;;;2.70;;
57327;SDS011;43162;51.040;18.244;2024-02-26T10:45:05;6.10;;;2.40;;
57327;SDS011;43162;51.040;18.244;2024-02-26T10:47:32;4.00;;;1.80;;
57327;SDS011;43162;51.040;18.244;2024-02-26T10:49:59;7.00;;;2.10;;
57327;SDS011;43162;51.040;18.244;2024-02-26T10:52:27;5.50;;;2.60;;
57327;SDS011;43162;51.040;18.244;2024-02-26T10:54:56;4.30;;;2.40;;
57327;SDS011;43162;51.040;18.244;2024-02-26T10:57:35;3.80;;;2.40;;
57327;SDS011;43162;51.040;18.244;2024-02-26T11:00:04;4.10;;;1.80;;
57327;SDS011;43162;51.040;18.244;2024-02-26T11:02:34;3.80;;;2.30;;
57327;SDS011;43162;51.040;18.244;2024-02-26T11:05:02;5.90;;;1.90;;
57327;SDS011;43162;51.040;18.244;2024-02-26T11:07:32;2.80;;;1.40;;
57327;SDS011;43162;51.040;18.244;2024-02-26T11:10:03;5.60;;;1.90;;
57327;SDS011;43162;51.040;18.244;2024-02-26T11:12:30;3.30;;;1.90;;
57327;SDS011;43162;51.040;18.244;2024-02-26T11:14:57;5.00;;;1.50;;
57327;SDS011;43162;51.040;18.244;2024-02-26T11:17:28;5.20;;;2.20;;
57327;SDS011;43162;51.040;18.244;2024-02-26T11:19:57;3.10;;;2.00;;
57327;SDS011;43162;51.040;18.244;2024-02-26T11:22:23;14.70;;;2.40;;
57327;SDS011;43162;51.040;18.244;2024-02-26T11:24:51;5.60;;;1.70;;
57327;SDS011;43162;51.040;18.244;2024-02-26T11:27:18;6.30;;;2.70;;
57327;SDS011;43162;51.040;18.244;2024-02-26T11:29:47;5.30;;;2.10;;
57327;SDS011;43162;51.040;18.244;2024-02-26T11:32:17;4.40;;;2.20;;
57327;SDS011;43162;51.040;18.244;2024-02-26T11:34:43;4.90;;;2.10;;
57327;SDS011;43162;51.040;18.244;2024-02-26T11:37:13;4.60;;;2.50;;
57327;SDS011;43162;51.040;18.244;2024-02-26T11:39:40;4.40;;;2.60;;
57327;SDS011;43162;51.040;18.244;2024-02-26T11:42:07;4.40;;;1.90;;
57327;SDS011;43162;51.040;18.244;2024-02-26T11:44:33;4.10;;;2.30;;
57327;SDS011;43162;51.040;18.244;2024-02-26T11:47:00;5.30;;;1.90;;
57327;SDS011;43162;51.040;18.244;2024-02-26T11:49:37;5.80;;;2.50;;
57327;SDS011;43162;51.040;18.244;2024-02-26T11:52:05;2.80;;;1.90;;
57327;SDS011;43162;51.040;18.244;2024-02-26T11:54:48;6.00;;;2.90;;
57327;SDS011;43162;51.040;18.244;2024-02-26T12:00:10;7.10;;;2.70;;
57327;SDS011;43162;51.040;18.244;2024-02-26T12:02:45;12.00;;;2.70;;
57327;SDS011;43162;51.040;18.244;2024-02-26T12:05:12;5.60;;;2.90;;
57327;SDS011;43162;51.040;18.244;2024-02-26T12:07:46;5.00;;;2.50;;
57327;SDS011;43162;51.040;18.244;2024-02-26T12:10:16;8.90;;;3.20;;
57327;SDS011;43162;51.040;18.244;2024-02-26T12:13:05;3.60;;;2.20;;
57327;SDS011;43162;51.040;18.244;2024-02-26T12:15:38;5.60;;;2.40;;
57327;SDS011;43162;51.040;18.244;2024-02-26T12:18:06;6.10;;;2.30;;
57327;SDS011;43162;51.040;18.244;2024-02-26T12:20:36;2.80;;;2.30;;
57327;SDS011;43162;51.040;18.244;2024-02-26T12:23:02;6.20;;;2.60;;
57327;SDS011;43162;51.040;18.244;2024-02-26T12:25:32;2.90;;;1.80;;
57327;SDS011;43162;51.040;18.244;2024-02-26T12:27:58;3.90;;;1.90;;
57327;SDS011;43162;51.040;18.244;2024-02-26T12:30:25;5.10;;;2.40;;
57327;SDS011;43162;51.040;18.244;2024-02-26T12:32:51;5.00;;;2.50;;
57327;SDS011;43162;51.040;18.244;2024-02-26T12:35:23;5.30;;;2.60;;
57327;SDS011;43162;51.040;18.244;2024-02-26T12:37:50;4.20;;;2.50;;
57327;SDS011;43162;51.040;18.244;2024-02-26T12:40:16;4.80;;;2.70;;
57327;SDS011;43162;51.040;18.244;2024-02-26T12:42:42;4.40;;;2.10;;
57327;SDS011;43162;51.040;18.244;2024-02-26T12:45:10;3.30;;;1.70;;
57327;SDS011;43162;51.040;18.244;2024-02-26T12:47:43;2.60;;;1.60;;
57327;SDS011;43162;51.040;18.244;2024-02-26T12:50:11;2.20;;;1.10;;
57327;SDS011;43162;51.040;18.244;2024-02-26T12:52:38;2.90;;;1.40;;
57327;SDS011;43162;51.040;18.244;2024-02-26T12:55:06;2.60;;;1.30;;
57327;SDS011;43162;51.040;18.244;2024-02-26T12:57:38;3.10;;;1.40;;
57327;SDS011;43162;51.040;18.244;2024-02-26T13:00:07;4.20;;;1.40;;
57327;SDS011;43162;51.040;18.244;2024-02-26T13:02:37;1.90;;;1.70;;
57327;SDS011;43162;51.040;18.244;2024-02-26T13:05:06;4.60;;;2.10;;
57327;SDS011;43162;51.040;18.244;2024-02-26T13:07:33;3.00;;;1.60;;
57327;SDS011;43162;51.040;18.244;2024-02-26T13:09:59;2.90;;;2.00;;
57327;SDS011;43162;51.040;18.244;2024-02-26T13:12:25;2.90;;;1.50;;
57327;SDS011;43162;51.040;18.244;2024-02-26T13:15:00;2.70;;;1.40;;
57327;SDS011;43162;51.040;18.244;2024-02-26T13:17:26;4.10;;;1.50;;
57327;SDS011;43162;51.040;18.244;2024-02-26T13:19:53;4.20;;;2.40;;
57327;SDS011;43162;51.040;18.244;2024-02-26T13:22:22;4.30;;;1.90;;
57327;SDS011;43162;51.040;18.244;2024-02-26T13:24:55;3.90;;;1.50;;
57327;SDS011;43162;51.040;18.244;2024-02-26T13:27:22;2.80;;;1.60;;
57327;SDS011;43162;51.040;18.244;2024-02-26T13:29:48;4.00;;;2.00;;
57327;SDS011;43162;51.040;18.244;2024-02-26T13:32:13;4.40;;;1.90;;
57327;SDS011;43162;51.040;18.244;2024-02-26T13:34:39;6.20;;;1.80;;
57327;SDS011;43162;51.040;18.244;2024-02-26T13:37:05;4.00;;;2.10;;
57327;SDS011;43162;51.040;18.244;2024-02-26T13:39:30;5.40;;;2.00;;
57327;SDS011;43162;51.040;18.244;2024-02-26T13:41:56;4.90;;;2.40;;
57327;SDS011;43162;51.040;18.244;2024-02-26T13:44:23;3.80;;;2.20;;
57327;SDS011;43162;51.040;18.244;2024-02-26T13:46:49;8.80;;;2.10;;
57327;SDS011;43162;51.040;18.244;2024-02-26T13:49:16;7.30;;;3.20;;
57327;SDS011;43162;51.040;18.244;2024-02-26T13:51:41;6.10;;;2.70;;
57327;SDS011;43162;51.040;18.244;2024-02-26T13:54:07;14.00;;;12.50;;
57327;SDS011;43162;51.040;18.244;2024-02-26T13:56:35;14.30;;;12.90;;
57327;SDS011;43162;51.040;18.244;2024-02-26T13:59:01;15.20;;;12.20;;
57327;SDS011;43162;51.040;18.244;2024-02-26T14:01:26;7.40;;;6.70;;
57327;SDS011;43162;51.040;18.244;2024-02-26T14:03:53;8.90;;;6.50;;
57327;SDS011;43162;51.040;18.244;2024-02-26T14:06:22;5.50;;;3.90;;
57327;SDS011;43162;51.040;18.244;2024-02-26T14:08:48;6.20;;;3.60;;
57327;SDS011;43162;51.040;18.244;2024-02-26T14:11:14;2.60;;;2.10;;
57327;SDS011;43162;51.040;18.244;2024-02-26T14:13:39;4.30;;;2.20;;
57327;SDS011;43162;51.040;18.244;2024-02-26T14:16:05;2.60;;;2.10;;
57327;SDS011;43162;51.040;18.244;2024-02-26T14:18:31;6.60;;;1.40;;
57327;SDS011;43162;51.040;18.244;2024-02-26T14:20:56;3.00;;;1.70;;